This is the latest recevied weather packets stored in our database for station/object IV3SCP-10. If no packets are shown the sender has not sent any weather packets the latest 10 day(s).
| Time | Temp. | Humidity | Pressure | Rain* | Wind** | Luminosity | Snow |
|---|---|---|---|---|---|---|---|
| 1788598184 | 32.78° C | 35% | 1015.2 hPa | - | - | - | - |
| 1788597284 | 33.33° C | 35% | 1015 hPa | - | - | - | - |
| 1788596384 | 31.67° C | 43% | 1015.2 hPa | - | - | - | - |
| 1788595484 | 30° C | 57% | 1014.9 hPa | - | - | - | - |
| 1788594584 | 27.78° C | 69% | 1014.9 hPa | - | - | - | - |
| 1788593683 | 27.22° C | 78% | 1014.8 hPa | - | - | - | - |
| 1788592783 | 27.22° C | 80% | 1014.9 hPa | - | - | - | - |
| 1788591883 | 26.11° C | 88% | 1014.6 hPa | - | - | - | - |
| 1788591019 | 26.11° C | 87% | 1014.5 hPa | - | - | - | - |
| 1788590983 | 26.11° C | 87% | 1014.5 hPa | - | - | - | - |
| 1788590083 | 25° C | 93% | 1014.5 hPa | - | - | - | - |
| 1788589341 | 23.33° C | 95% | 1014.3 hPa | - | - | - | - |
| 1788589223 | 23.33° C | 95% | 1014.3 hPa | - | - | - | - |
| 1788589183 | 23.33° C | 95% | 1014.3 hPa | - | - | - | - |
| 1788564940 | 21.11° C | 100% | 1015.4 hPa | - | - | - | - |
| 1788564880 | 21.11° C | 100% | 1015.4 hPa | - | - | - | - |
| 1788563980 | 21.11° C | 100% | 1015.6 hPa | - | - | - | - |
| 1788560379 | 22.22° C | 100% | 1015.6 hPa | - | - | - | - |
| 1788559516 | 22.22° C | 100% | 1015.6 hPa | - | - | - | - |
| 1788559479 | 22.22° C | 100% | 1015.6 hPa | - | - | - | - |
| 1788557678 | 22.78° C | 100% | 1015.7 hPa | - | - | - | - |
| 1788554078 | 23.33° C | 100% | 1015.6 hPa | - | - | - | - |
| 1788553178 | 23.89° C | 100% | 1015.6 hPa | - | - | - | - |
| 1788552278 | 23.89° C | 100% | 1015.6 hPa | - | - | - | - |
| 1788550477 | 24.44° C | 100% | 1015.6 hPa | - | - | - | - |
* Rain since midnight (hover to see other rain measurements)
** Current wind speed in m/s (hover to see current wind gust speed)